sensor_id;sensor_type;location;lat;lon;timestamp;P1;durP1;ratioP1;P2;durP2;ratioP2
1699;SDS011;847;48.058;7.810;2022-12-16T00:00:05;43.95;;;26.15;;
1699;SDS011;847;48.058;7.810;2022-12-16T00:02:35;41.63;;;25.27;;
1699;SDS011;847;48.058;7.810;2022-12-16T00:05:01;42.30;;;22.98;;
1699;SDS011;847;48.058;7.810;2022-12-16T00:07:29;41.40;;;22.85;;
1699;SDS011;847;48.058;7.810;2022-12-16T00:09:56;38.45;;;23.52;;
1699;SDS011;847;48.058;7.810;2022-12-16T00:12:22;35.85;;;22.42;;
1699;SDS011;847;48.058;7.810;2022-12-16T00:14:49;40.85;;;22.65;;
1699;SDS011;847;48.058;7.810;2022-12-16T00:17:16;39.13;;;23.25;;
1699;SDS011;847;48.058;7.810;2022-12-16T00:19:44;37.90;;;23.30;;
1699;SDS011;847;48.058;7.810;2022-12-16T00:22:11;39.22;;;24.45;;
1699;SDS011;847;48.058;7.810;2022-12-16T00:24:38;39.08;;;23.63;;
1699;SDS011;847;48.058;7.810;2022-12-16T00:27:04;40.10;;;24.15;;
1699;SDS011;847;48.058;7.810;2022-12-16T00:29:31;39.30;;;24.88;;
1699;SDS011;847;48.058;7.810;2022-12-16T00:31:58;35.30;;;22.10;;
1699;SDS011;847;48.058;7.810;2022-12-16T00:34:26;34.63;;;23.23;;
1699;SDS011;847;48.058;7.810;2022-12-16T00:36:54;37.08;;;22.42;;
1699;SDS011;847;48.058;7.810;2022-12-16T00:39:21;32.75;;;23.15;;
1699;SDS011;847;48.058;7.810;2022-12-16T00:41:48;38.40;;;22.85;;
1699;SDS011;847;48.058;7.810;2022-12-16T00:44:15;39.03;;;24.70;;
1699;SDS011;847;48.058;7.810;2022-12-16T00:46:42;40.65;;;25.33;;
1699;SDS011;847;48.058;7.810;2022-12-16T00:49:09;39.83;;;22.92;;
1699;SDS011;847;48.058;7.810;2022-12-16T00:51:35;41.90;;;22.42;;
1699;SDS011;847;48.058;7.810;2022-12-16T00:54:03;40.75;;;24.27;;
1699;SDS011;847;48.058;7.810;2022-12-16T00:56:30;40.80;;;23.60;;
1699;SDS011;847;48.058;7.810;2022-12-16T00:58:57;38.63;;;23.10;;
1699;SDS011;847;48.058;7.810;2022-12-16T01:01:24;37.42;;;22.48;;
1699;SDS011;847;48.058;7.810;2022-12-16T01:03:51;37.08;;;22.63;;
1699;SDS011;847;48.058;7.810;2022-12-16T01:06:20;37.28;;;22.85;;
1699;SDS011;847;48.058;7.810;2022-12-16T01:08:47;40.47;;;24.50;;
1699;SDS011;847;48.058;7.810;2022-12-16T01:11:15;36.70;;;24.73;;
1699;SDS011;847;48.058;7.810;2022-12-16T01:13:42;38.60;;;23.60;;
1699;SDS011;847;48.058;7.810;2022-12-16T01:16:09;34.30;;;22.67;;
1699;SDS011;847;48.058;7.810;2022-12-16T01:18:36;37.85;;;23.83;;
1699;SDS011;847;48.058;7.810;2022-12-16T01:21:03;34.60;;;20.63;;
1699;SDS011;847;48.058;7.810;2022-12-16T01:23:31;34.15;;;22.40;;
1699;SDS011;847;48.058;7.810;2022-12-16T01:25:59;35.33;;;23.30;;
1699;SDS011;847;48.058;7.810;2022-12-16T01:28:28;37.47;;;22.75;;
1699;SDS011;847;48.058;7.810;2022-12-16T01:30:55;39.08;;;23.55;;
1699;SDS011;847;48.058;7.810;2022-12-16T01:33:26;35.78;;;22.02;;
1699;SDS011;847;48.058;7.810;2022-12-16T01:35:57;33.90;;;22.35;;
1699;SDS011;847;48.058;7.810;2022-12-16T01:38:25;38.70;;;24.55;;
1699;SDS011;847;48.058;7.810;2022-12-16T01:40:51;37.10;;;23.95;;
1699;SDS011;847;48.058;7.810;2022-12-16T01:43:19;37.40;;;22.02;;
1699;SDS011;847;48.058;7.810;2022-12-16T01:45:51;37.33;;;24.55;;
1699;SDS011;847;48.058;7.810;2022-12-16T01:48:24;38.50;;;21.77;;
1699;SDS011;847;48.058;7.810;2022-12-16T01:51:00;38.17;;;23.27;;
1699;SDS011;847;48.058;7.810;2022-12-16T01:53:31;39.17;;;23.30;;
1699;SDS011;847;48.058;7.810;2022-12-16T01:55:58;45.75;;;24.63;;
1699;SDS011;847;48.058;7.810;2022-12-16T01:58:26;38.90;;;23.70;;
1699;SDS011;847;48.058;7.810;2022-12-16T02:00:57;39.47;;;22.98;;
1699;SDS011;847;48.058;7.810;2022-12-16T02:03:26;37.28;;;22.77;;
1699;SDS011;847;48.058;7.810;2022-12-16T02:05:57;45.65;;;25.10;;
1699;SDS011;847;48.058;7.810;2022-12-16T02:08:24;35.65;;;22.50;;
1699;SDS011;847;48.058;7.810;2022-12-16T02:10:55;41.15;;;24.50;;
1699;SDS011;847;48.058;7.810;2022-12-16T02:13:49;38.97;;;23.45;;
1699;SDS011;847;48.058;7.810;2022-12-16T02:16:29;40.38;;;22.92;;
1699;SDS011;847;48.058;7.810;2022-12-16T02:19:05;39.33;;;23.70;;
1699;SDS011;847;48.058;7.810;2022-12-16T02:21:45;42.53;;;24.33;;
1699;SDS011;847;48.058;7.810;2022-12-16T02:24:19;35.55;;;21.58;;
1699;SDS011;847;48.058;7.810;2022-12-16T02:30:29;35.78;;;22.67;;
1699;SDS011;847;48.058;7.810;2022-12-16T02:33:08;36.88;;;23.38;;
1699;SDS011;847;48.058;7.810;2022-12-16T02:35:48;34.28;;;21.13;;
1699;SDS011;847;48.058;7.810;2022-12-16T02:38:20;40.55;;;23.00;;
1699;SDS011;847;48.058;7.810;2022-12-16T02:40:54;39.72;;;24.48;;
1699;SDS011;847;48.058;7.810;2022-12-16T02:43:27;40.28;;;22.25;;
1699;SDS011;847;48.058;7.810;2022-12-16T02:46:08;33.15;;;20.58;;
1699;SDS011;847;48.058;7.810;2022-12-16T02:48:35;36.15;;;23.52;;
1699;SDS011;847;48.058;7.810;2022-12-16T02:51:02;37.85;;;21.92;;
1699;SDS011;847;48.058;7.810;2022-12-16T02:53:29;41.90;;;25.08;;
1699;SDS011;847;48.058;7.810;2022-12-16T02:55:59;41.90;;;24.60;;
1699;SDS011;847;48.058;7.810;2022-12-16T02:58:32;35.85;;;23.08;;
1699;SDS011;847;48.058;7.810;2022-12-16T03:01:10;38.65;;;23.13;;
1699;SDS011;847;48.058;7.810;2022-12-16T03:03:43;40.30;;;23.60;;
1699;SDS011;847;48.058;7.810;2022-12-16T03:06:14;37.55;;;22.90;;
1699;SDS011;847;48.058;7.810;2022-12-16T03:08:45;35.38;;;22.20;;
1699;SDS011;847;48.058;7.810;2022-12-16T03:11:14;34.90;;;22.23;;
1699;SDS011;847;48.058;7.810;2022-12-16T03:13:42;34.92;;;22.92;;
1699;SDS011;847;48.058;7.810;2022-12-16T03:16:15;37.25;;;22.00;;
1699;SDS011;847;48.058;7.810;2022-12-16T03:18:46;33.58;;;21.77;;
1699;SDS011;847;48.058;7.810;2022-12-16T03:21:17;36.22;;;22.42;;
1699;SDS011;847;48.058;7.810;2022-12-16T03:23:49;38.28;;;21.58;;
1699;SDS011;847;48.058;7.810;2022-12-16T03:26:20;37.75;;;23.90;;
1699;SDS011;847;48.058;7.810;2022-12-16T03:28:53;32.92;;;20.85;;
1699;SDS011;847;48.058;7.810;2022-12-16T03:31:28;35.78;;;21.02;;
1699;SDS011;847;48.058;7.810;2022-12-16T03:34:02;35.05;;;21.55;;
1699;SDS011;847;48.058;7.810;2022-12-16T03:36:35;35.92;;;23.77;;
1699;SDS011;847;48.058;7.810;2022-12-16T03:39:04;37.85;;;22.35;;
1699;SDS011;847;48.058;7.810;2022-12-16T03:41:33;34.45;;;23.35;;
1699;SDS011;847;48.058;7.810;2022-12-16T03:44:00;36.47;;;22.02;;
1699;SDS011;847;48.058;7.810;2022-12-16T03:46:29;33.47;;;21.50;;
1699;SDS011;847;48.058;7.810;2022-12-16T03:48:56;36.30;;;21.67;;
1699;SDS011;847;48.058;7.810;2022-12-16T03:51:23;34.47;;;21.75;;
1699;SDS011;847;48.058;7.810;2022-12-16T03:53:50;34.10;;;21.38;;
1699;SDS011;847;48.058;7.810;2022-12-16T03:56:17;32.55;;;21.13;;
1699;SDS011;847;48.058;7.810;2022-12-16T03:58:44;30.02;;;20.67;;
1699;SDS011;847;48.058;7.810;2022-12-16T04:01:11;33.33;;;21.20;;
1699;SDS011;847;48.058;7.810;2022-12-16T04:03:40;33.72;;;21.45;;
1699;SDS011;847;48.058;7.810;2022-12-16T04:06:07;33.05;;;20.88;;
1699;SDS011;847;48.058;7.810;2022-12-16T04:08:34;31.30;;;19.67;;
1699;SDS011;847;48.058;7.810;2022-12-16T04:11:00;30.55;;;19.13;;
1699;SDS011;847;48.058;7.810;2022-12-16T04:13:45;36.13;;;21.67;;
1699;SDS011;847;48.058;7.810;2022-12-16T04:16:29;29.30;;;20.13;;
1699;SDS011;847;48.058;7.810;2022-12-16T04:19:18;32.30;;;19.40;;
1699;SDS011;847;48.058;7.810;2022-12-16T04:22:08;32.22;;;19.52;;
1699;SDS011;847;48.058;7.810;2022-12-16T04:24:58;29.80;;;18.17;;
1699;SDS011;847;48.058;7.810;2022-12-16T04:27:28;32.30;;;19.45;;
1699;SDS011;847;48.058;7.810;2022-12-16T04:29:54;28.23;;;19.25;;
1699;SDS011;847;48.058;7.810;2022-12-16T04:32:39;27.67;;;19.45;;
1699;SDS011;847;48.058;7.810;2022-12-16T04:35:24;33.20;;;18.98;;
1699;SDS011;847;48.058;7.810;2022-12-16T04:38:09;33.17;;;20.33;;
1699;SDS011;847;48.058;7.810;2022-12-16T04:40:53;34.08;;;19.80;;
1699;SDS011;847;48.058;7.810;2022-12-16T04:43:36;35.85;;;20.70;;
1699;SDS011;847;48.058;7.810;2022-12-16T04:46:21;34.30;;;19.42;;
1699;SDS011;847;48.058;7.810;2022-12-16T04:49:05;29.70;;;18.80;;
1699;SDS011;847;48.058;7.810;2022-12-16T04:51:51;32.20;;;19.23;;
1699;SDS011;847;48.058;7.810;2022-12-16T04:54:35;31.73;;;18.88;;
1699;SDS011;847;48.058;7.810;2022-12-16T04:57:19;28.08;;;18.00;;
1699;SDS011;847;48.058;7.810;2022-12-16T05:00:03;30.75;;;20.33;;
1699;SDS011;847;48.058;7.810;2022-12-16T05:02:49;29.15;;;19.52;;
1699;SDS011;847;48.058;7.810;2022-12-16T05:05:33;33.22;;;20.35;;
1699;SDS011;847;48.058;7.810;2022-12-16T05:08:19;31.00;;;19.83;;
1699;SDS011;847;48.058;7.810;2022-12-16T05:11:03;34.95;;;20.80;;
1699;SDS011;847;48.058;7.810;2022-12-16T05:13:48;36.25;;;21.63;;
1699;SDS011;847;48.058;7.810;2022-12-16T05:16:32;35.78;;;20.70;;
1699;SDS011;847;48.058;7.810;2022-12-16T05:19:16;33.80;;;20.63;;
1699;SDS011;847;48.058;7.810;2022-12-16T05:22:00;31.80;;;19.38;;
1699;SDS011;847;48.058;7.810;2022-12-16T05:24:46;32.60;;;18.13;;
1699;SDS011;847;48.058;7.810;2022-12-16T05:27:30;35.60;;;21.38;;
1699;SDS011;847;48.058;7.810;2022-12-16T05:30:15;37.60;;;21.73;;
1699;SDS011;847;48.058;7.810;2022-12-16T05:32:59;32.38;;;19.77;;
1699;SDS011;847;48.058;7.810;2022-12-16T05:35:44;33.75;;;19.05;;
1699;SDS011;847;48.058;7.810;2022-12-16T05:38:28;30.92;;;18.27;;
1699;SDS011;847;48.058;7.810;2022-12-16T05:41:13;39.08;;;20.55;;
1699;SDS011;847;48.058;7.810;2022-12-16T05:43:58;28.95;;;19.02;;
1699;SDS011;847;48.058;7.810;2022-12-16T05:46:42;27.83;;;18.05;;
1699;SDS011;847;48.058;7.810;2022-12-16T05:49:26;29.10;;;18.80;;
1699;SDS011;847;48.058;7.810;2022-12-16T05:52:11;29.80;;;18.63;;
1699;SDS011;847;48.058;7.810;2022-12-16T05:54:55;31.73;;;18.42;;
1699;SDS011;847;48.058;7.810;2022-12-16T05:57:40;32.40;;;20.10;;
1699;SDS011;847;48.058;7.810;2022-12-16T06:00:25;30.52;;;17.90;;
1699;SDS011;847;48.058;7.810;2022-12-16T06:03:09;30.20;;;18.63;;
1699;SDS011;847;48.058;7.810;2022-12-16T06:05:53;26.35;;;17.10;;
1699;SDS011;847;48.058;7.810;2022-12-16T06:08:37;29.27;;;18.85;;
1699;SDS011;847;48.058;7.810;2022-12-16T06:11:21;29.20;;;18.70;;
1699;SDS011;847;48.058;7.810;2022-12-16T06:14:07;27.95;;;19.67;;
1699;SDS011;847;48.058;7.810;2022-12-16T06:16:51;26.45;;;17.80;;
1699;SDS011;847;48.058;7.810;2022-12-16T06:19:35;35.60;;;20.83;;
1699;SDS011;847;48.058;7.810;2022-12-16T06:22:19;33.70;;;23.92;;
1699;SDS011;847;48.058;7.810;2022-12-16T06:25:04;29.58;;;19.20;;
1699;SDS011;847;48.058;7.810;2022-12-16T06:27:49;30.65;;;20.35;;
1699;SDS011;847;48.058;7.810;2022-12-16T06:30:35;28.30;;;18.92;;
1699;SDS011;847;48.058;7.810;2022-12-16T06:33:16;26.83;;;16.80;;
1699;SDS011;847;48.058;7.810;2022-12-16T06:36:00;32.72;;;19.10;;
1699;SDS011;847;48.058;7.810;2022-12-16T06:38:44;29.45;;;18.83;;
1699;SDS011;847;48.058;7.810;2022-12-16T06:41:29;49.00;;;21.48;;
1699;SDS011;847;48.058;7.810;2022-12-16T06:44:12;32.83;;;19.10;;
1699;SDS011;847;48.058;7.810;2022-12-16T06:46:58;29.67;;;18.30;;
1699;SDS011;847;48.058;7.810;2022-12-16T06:49:42;31.10;;;19.00;;
1699;SDS011;847;48.058;7.810;2022-12-16T06:52:26;32.47;;;18.95;;
1699;SDS011;847;48.058;7.810;2022-12-16T06:55:11;31.77;;;20.50;;
1699;SDS011;847;48.058;7.810;2022-12-16T06:57:55;31.20;;;19.15;;
1699;SDS011;847;48.058;7.810;2022-12-16T07:00:40;28.70;;;19.80;;
1699;SDS011;847;48.058;7.810;2022-12-16T07:03:26;28.15;;;19.33;;
1699;SDS011;847;48.058;7.810;2022-12-16T07:06:10;35.90;;;21.88;;
1699;SDS011;847;48.058;7.810;2022-12-16T07:08:54;37.58;;;22.92;;
1699;SDS011;847;48.058;7.810;2022-12-16T07:11:38;31.88;;;21.95;;
1699;SDS011;847;48.058;7.810;2022-12-16T07:14:23;26.17;;;19.02;;
1699;SDS011;847;48.058;7.810;2022-12-16T07:17:07;32.85;;;20.73;;
1699;SDS011;847;48.058;7.810;2022-12-16T07:19:53;41.65;;;24.70;;
1699;SDS011;847;48.058;7.810;2022-12-16T07:22:37;38.67;;;26.80;;
1699;SDS011;847;48.058;7.810;2022-12-16T07:25:25;38.25;;;27.00;;
1699;SDS011;847;48.058;7.810;2022-12-16T07:28:09;37.95;;;25.20;;
1699;SDS011;847;48.058;7.810;2022-12-16T07:30:53;36.67;;;21.23;;
1699;SDS011;847;48.058;7.810;2022-12-16T07:33:38;32.30;;;21.80;;
1699;SDS011;847;48.058;7.810;2022-12-16T07:36:23;37.20;;;24.77;;
1699;SDS011;847;48.058;7.810;2022-12-16T07:39:07;31.55;;;20.38;;
1699;SDS011;847;48.058;7.810;2022-12-16T07:41:52;31.45;;;21.58;;
1699;SDS011;847;48.058;7.810;2022-12-16T07:44:36;31.27;;;21.25;;
1699;SDS011;847;48.058;7.810;2022-12-16T07:47:20;31.05;;;20.30;;
1699;SDS011;847;48.058;7.810;2022-12-16T07:50:05;30.50;;;19.48;;
1699;SDS011;847;48.058;7.810;2022-12-16T07:52:53;30.25;;;19.58;;
1699;SDS011;847;48.058;7.810;2022-12-16T07:55:37;29.67;;;19.52;;
1699;SDS011;847;48.058;7.810;2022-12-16T07:58:21;31.20;;;19.80;;
1699;SDS011;847;48.058;7.810;2022-12-16T08:01:02;31.75;;;22.35;;
1699;SDS011;847;48.058;7.810;2022-12-16T08:03:46;28.75;;;19.70;;
1699;SDS011;847;48.058;7.810;2022-12-16T08:06:31;29.77;;;18.90;;
1699;SDS011;847;48.058;7.810;2022-12-16T08:09:16;33.58;;;20.35;;
1699;SDS011;847;48.058;7.810;2022-12-16T08:12:01;30.90;;;19.85;;
1699;SDS011;847;48.058;7.810;2022-12-16T08:14:45;27.00;;;17.70;;
1699;SDS011;847;48.058;7.810;2022-12-16T08:17:29;28.95;;;16.85;;
1699;SDS011;847;48.058;7.810;2022-12-16T08:20:14;25.58;;;16.35;;
1699;SDS011;847;48.058;7.810;2022-12-16T08:22:58;28.17;;;16.90;;
1699;SDS011;847;48.058;7.810;2022-12-16T08:25:44;27.67;;;18.35;;
1699;SDS011;847;48.058;7.810;2022-12-16T08:28:28;28.63;;;17.50;;
1699;SDS011;847;48.058;7.810;2022-12-16T08:31:12;24.25;;;16.90;;
1699;SDS011;847;48.058;7.810;2022-12-16T08:33:57;20.27;;;14.23;;
1699;SDS011;847;48.058;7.810;2022-12-16T08:36:41;22.77;;;15.75;;
1699;SDS011;847;48.058;7.810;2022-12-16T08:39:25;26.00;;;16.63;;
1699;SDS011;847;48.058;7.810;2022-12-16T08:42:11;26.25;;;17.95;;
1699;SDS011;847;48.058;7.810;2022-12-16T08:44:55;25.80;;;15.98;;
1699;SDS011;847;48.058;7.810;2022-12-16T08:47:39;25.73;;;15.90;;
1699;SDS011;847;48.058;7.810;2022-12-16T08:50:23;23.08;;;15.45;;
1699;SDS011;847;48.058;7.810;2022-12-16T08:53:07;23.92;;;15.07;;
1699;SDS011;847;48.058;7.810;2022-12-16T08:55:52;23.77;;;15.60;;
1699;SDS011;847;48.058;7.810;2022-12-16T08:58:37;22.98;;;14.45;;
1699;SDS011;847;48.058;7.810;2022-12-16T09:01:22;23.58;;;14.90;;
1699;SDS011;847;48.058;7.810;2022-12-16T09:04:06;24.83;;;16.33;;
1699;SDS011;847;48.058;7.810;2022-12-16T09:06:50;20.92;;;13.00;;
1699;SDS011;847;48.058;7.810;2022-12-16T09:09:35;24.13;;;16.20;;
1699;SDS011;847;48.058;7.810;2022-12-16T09:12:19;24.52;;;16.10;;
1699;SDS011;847;48.058;7.810;2022-12-16T09:15:05;22.75;;;14.02;;
1699;SDS011;847;48.058;7.810;2022-12-16T09:17:52;26.75;;;16.35;;
1699;SDS011;847;48.058;7.810;2022-12-16T09:20:36;26.80;;;17.05;;
1699;SDS011;847;48.058;7.810;2022-12-16T09:23:20;23.45;;;14.93;;
1699;SDS011;847;48.058;7.810;2022-12-16T09:26:05;27.60;;;16.85;;
1699;SDS011;847;48.058;7.810;2022-12-16T09:28:49;22.30;;;14.43;;
1699;SDS011;847;48.058;7.810;2022-12-16T09:31:35;23.02;;;14.15;;
1699;SDS011;847;48.058;7.810;2022-12-16T09:34:19;22.83;;;14.43;;
1699;SDS011;847;48.058;7.810;2022-12-16T09:37:03;24.35;;;14.65;;
1699;SDS011;847;48.058;7.810;2022-12-16T09:39:48;18.88;;;13.52;;
1699;SDS011;847;48.058;7.810;2022-12-16T09:42:34;21.52;;;14.60;;
1699;SDS011;847;48.058;7.810;2022-12-16T09:45:25;20.65;;;14.55;;
1699;SDS011;847;48.058;7.810;2022-12-16T09:48:23;21.38;;;14.82;;
1699;SDS011;847;48.058;7.810;2022-12-16T09:51:12;24.27;;;15.45;;
1699;SDS011;847;48.058;7.810;2022-12-16T09:53:57;19.30;;;12.48;;
1699;SDS011;847;48.058;7.810;2022-12-16T09:56:44;25.08;;;15.20;;
1699;SDS011;847;48.058;7.810;2022-12-16T09:59:29;23.45;;;14.77;;
1699;SDS011;847;48.058;7.810;2022-12-16T10:02:17;25.70;;;14.88;;
1699;SDS011;847;48.058;7.810;2022-12-16T10:05:07;19.23;;;13.45;;
1699;SDS011;847;48.058;7.810;2022-12-16T10:07:55;26.77;;;14.85;;
1699;SDS011;847;48.058;7.810;2022-12-16T10:10:47;30.15;;;16.65;;
1699;SDS011;847;48.058;7.810;2022-12-16T10:13:39;28.20;;;15.48;;
1699;SDS011;847;48.058;7.810;2022-12-16T10:16:40;23.63;;;14.60;;
1699;SDS011;847;48.058;7.810;2022-12-16T10:19:47;23.15;;;15.00;;
1699;SDS011;847;48.058;7.810;2022-12-16T10:22:40;22.08;;;14.02;;
1699;SDS011;847;48.058;7.810;2022-12-16T10:25:31;44.17;;;32.22;;
1699;SDS011;847;48.058;7.810;2022-12-16T10:28:23;30.83;;;18.13;;
1699;SDS011;847;48.058;7.810;2022-12-16T10:31:21;26.60;;;16.17;;
1699;SDS011;847;48.058;7.810;2022-12-16T10:34:08;28.27;;;19.95;;
1699;SDS011;847;48.058;7.810;2022-12-16T10:36:56;23.17;;;15.88;;
1699;SDS011;847;48.058;7.810;2022-12-16T10:39:42;25.60;;;16.92;;
1699;SDS011;847;48.058;7.810;2022-12-16T10:42:34;23.13;;;16.15;;
1699;SDS011;847;48.058;7.810;2022-12-16T10:45:26;22.80;;;16.08;;
1699;SDS011;847;48.058;7.810;2022-12-16T10:48:13;35.10;;;21.70;;
1699;SDS011;847;48.058;7.810;2022-12-16T10:51:00;24.10;;;16.17;;
1699;SDS011;847;48.058;7.810;2022-12-16T10:53:44;28.88;;;17.80;;
1699;SDS011;847;48.058;7.810;2022-12-16T10:56:38;27.60;;;17.45;;
1699;SDS011;847;48.058;7.810;2022-12-16T10:59:33;24.60;;;16.33;;
1699;SDS011;847;48.058;7.810;2022-12-16T11:05:57;24.30;;;16.27;;
1699;SDS011;847;48.058;7.810;2022-12-16T11:08:43;33.40;;;20.00;;
1699;SDS011;847;48.058;7.810;2022-12-16T11:11:29;25.67;;;18.20;;
1699;SDS011;847;48.058;7.810;2022-12-16T11:14:16;35.78;;;23.95;;
1699;SDS011;847;48.058;7.810;2022-12-16T11:17:13;29.48;;;19.17;;
1699;SDS011;847;48.058;7.810;2022-12-16T11:23:07;26.50;;;15.45;;
1699;SDS011;847;48.058;7.810;2022-12-16T11:26:09;29.45;;;17.75;;
1699;SDS011;847;48.058;7.810;2022-12-16T11:32:05;30.50;;;19.25;;
1699;SDS011;847;48.058;7.810;2022-12-16T11:35:02;32.35;;;18.92;;
1699;SDS011;847;48.058;7.810;2022-12-16T11:37:48;26.27;;;17.55;;
1699;SDS011;847;48.058;7.810;2022-12-16T11:40:34;27.38;;;17.48;;
1699;SDS011;847;48.058;7.810;2022-12-16T11:43:20;30.80;;;16.73;;
1699;SDS011;847;48.058;7.810;2022-12-16T11:46:09;28.90;;;17.55;;
1699;SDS011;847;48.058;7.810;2022-12-16T11:49:01;24.70;;;16.65;;
1699;SDS011;847;48.058;7.810;2022-12-16T11:52:04;28.00;;;15.32;;
1699;SDS011;847;48.058;7.810;2022-12-16T11:54:51;26.65;;;16.17;;
1699;SDS011;847;48.058;7.810;2022-12-16T11:57:42;27.58;;;16.35;;
1699;SDS011;847;48.058;7.810;2022-12-16T12:00:30;32.38;;;18.92;;
1699;SDS011;847;48.058;7.810;2022-12-16T12:03:21;29.15;;;18.50;;
1699;SDS011;847;48.058;7.810;2022-12-16T12:06:10;24.75;;;17.70;;
1699;SDS011;847;48.058;7.810;2022-12-16T12:09:04;26.63;;;17.23;;
1699;SDS011;847;48.058;7.810;2022-12-16T12:11:54;33.25;;;16.67;;
1699;SDS011;847;48.058;7.810;2022-12-16T12:14:44;23.95;;;15.43;;
1699;SDS011;847;48.058;7.810;2022-12-16T12:17:35;34.20;;;17.83;;
1699;SDS011;847;48.058;7.810;2022-12-16T12:20:28;28.63;;;16.38;;
1699;SDS011;847;48.058;7.810;2022-12-16T12:23:30;29.75;;;19.00;;
1699;SDS011;847;48.058;7.810;2022-12-16T12:26:21;33.10;;;20.08;;
1699;SDS011;847;48.058;7.810;2022-12-16T12:29:13;29.02;;;19.15;;
1699;SDS011;847;48.058;7.810;2022-12-16T12:32:22;29.20;;;19.15;;
1699;SDS011;847;48.058;7.810;2022-12-16T12:35:17;31.10;;;20.30;;
1699;SDS011;847;48.058;7.810;2022-12-16T12:38:11;29.63;;;18.95;;
1699;SDS011;847;48.058;7.810;2022-12-16T12:41:02;31.98;;;19.60;;
1699;SDS011;847;48.058;7.810;2022-12-16T12:43:54;27.65;;;18.38;;
1699;SDS011;847;48.058;7.810;2022-12-16T12:46:44;25.90;;;17.88;;
1699;SDS011;847;48.058;7.810;2022-12-16T12:49:35;30.67;;;18.10;;
1699;SDS011;847;48.058;7.810;2022-12-16T12:52:28;25.48;;;17.40;;
1699;SDS011;847;48.058;7.810;2022-12-16T12:55:34;29.83;;;17.10;;
1699;SDS011;847;48.058;7.810;2022-12-16T12:58:25;31.95;;;19.88;;
1699;SDS011;847;48.058;7.810;2022-12-16T13:01:11;28.02;;;17.92;;
1699;SDS011;847;48.058;7.810;2022-12-16T13:03:59;27.38;;;18.50;;
1699;SDS011;847;48.058;7.810;2022-12-16T13:06:49;28.35;;;17.05;;
1699;SDS011;847;48.058;7.810;2022-12-16T13:09:35;27.85;;;18.60;;
1699;SDS011;847;48.058;7.810;2022-12-16T13:12:27;23.38;;;17.60;;
1699;SDS011;847;48.058;7.810;2022-12-16T13:18:22;21.95;;;15.77;;
1699;SDS011;847;48.058;7.810;2022-12-16T13:24:34;26.52;;;17.42;;
1699;SDS011;847;48.058;7.810;2022-12-16T13:27:27;25.15;;;17.17;;
1699;SDS011;847;48.058;7.810;2022-12-16T13:30:18;28.02;;;15.60;;
1699;SDS011;847;48.058;7.810;2022-12-16T13:33:05;23.30;;;16.30;;
1699;SDS011;847;48.058;7.810;2022-12-16T13:36:03;23.85;;;15.20;;
1699;SDS011;847;48.058;7.810;2022-12-16T13:38:49;26.33;;;15.95;;
1699;SDS011;847;48.058;7.810;2022-12-16T13:41:48;30.15;;;15.82;;
1699;SDS011;847;48.058;7.810;2022-12-16T13:44:58;20.98;;;15.52;;
1699;SDS011;847;48.058;7.810;2022-12-16T13:47:59;31.13;;;16.50;;
1699;SDS011;847;48.058;7.810;2022-12-16T13:50:46;23.70;;;15.35;;
1699;SDS011;847;48.058;7.810;2022-12-16T13:53:32;25.90;;;16.63;;
1699;SDS011;847;48.058;7.810;2022-12-16T13:56:22;26.67;;;16.52;;
1699;SDS011;847;48.058;7.810;2022-12-16T13:59:12;22.70;;;16.27;;
1699;SDS011;847;48.058;7.810;2022-12-16T14:02:02;24.25;;;15.52;;
1699;SDS011;847;48.058;7.810;2022-12-16T14:04:59;26.80;;;16.30;;
1699;SDS011;847;48.058;7.810;2022-12-16T14:07:44;23.52;;;15.13;;
1699;SDS011;847;48.058;7.810;2022-12-16T14:10:29;26.10;;;15.55;;
1699;SDS011;847;48.058;7.810;2022-12-16T14:13:16;22.70;;;14.45;;
1699;SDS011;847;48.058;7.810;2022-12-16T14:16:07;22.30;;;15.23;;
1699;SDS011;847;48.058;7.810;2022-12-16T14:19:00;23.90;;;13.30;;
1699;SDS011;847;48.058;7.810;2022-12-16T14:21:55;24.80;;;15.60;;
1699;SDS011;847;48.058;7.810;2022-12-16T14:24:45;23.45;;;14.55;;
1699;SDS011;847;48.058;7.810;2022-12-16T14:27:30;20.40;;;14.48;;
1699;SDS011;847;48.058;7.810;2022-12-16T14:30:19;24.30;;;15.02;;
1699;SDS011;847;48.058;7.810;2022-12-16T14:33:20;24.65;;;15.70;;
1699;SDS011;847;48.058;7.810;2022-12-16T14:36:21;18.75;;;12.90;;
1699;SDS011;847;48.058;7.810;2022-12-16T14:39:10;21.30;;;13.95;;
1699;SDS011;847;48.058;7.810;2022-12-16T14:41:55;25.30;;;14.30;;
1699;SDS011;847;48.058;7.810;2022-12-16T14:44:39;20.85;;;12.45;;
1699;SDS011;847;48.058;7.810;2022-12-16T14:47:28;23.60;;;13.68;;
1699;SDS011;847;48.058;7.810;2022-12-16T14:50:17;28.50;;;16.55;;
1699;SDS011;847;48.058;7.810;2022-12-16T14:53:16;27.42;;;17.00;;
1699;SDS011;847;48.058;7.810;2022-12-16T14:56:08;24.08;;;14.95;;
1699;SDS011;847;48.058;7.810;2022-12-16T14:59:06;22.73;;;14.68;;
1699;SDS011;847;48.058;7.810;2022-12-16T15:01:57;26.70;;;15.05;;
1699;SDS011;847;48.058;7.810;2022-12-16T15:04:53;21.83;;;13.32;;
1699;SDS011;847;48.058;7.810;2022-12-16T15:07:38;26.45;;;16.30;;
1699;SDS011;847;48.058;7.810;2022-12-16T15:10:24;25.67;;;15.55;;
1699;SDS011;847;48.058;7.810;2022-12-16T15:13:19;22.63;;;14.73;;
1699;SDS011;847;48.058;7.810;2022-12-16T15:16:03;18.70;;;13.30;;
1699;SDS011;847;48.058;7.810;2022-12-16T15:18:56;21.50;;;13.68;;
1699;SDS011;847;48.058;7.810;2022-12-16T15:21:43;25.60;;;16.52;;
1699;SDS011;847;48.058;7.810;2022-12-16T15:24:28;21.55;;;14.80;;
1699;SDS011;847;48.058;7.810;2022-12-16T15:27:25;22.92;;;15.82;;
1699;SDS011;847;48.058;7.810;2022-12-16T15:30:35;22.88;;;14.85;;
1699;SDS011;847;48.058;7.810;2022-12-16T15:33:21;22.65;;;14.50;;
1699;SDS011;847;48.058;7.810;2022-12-16T15:36:11;21.77;;;14.48;;
1699;SDS011;847;48.058;7.810;2022-12-16T15:39:09;26.02;;;15.40;;
1699;SDS011;847;48.058;7.810;2022-12-16T15:42:00;26.00;;;14.90;;
1699;SDS011;847;48.058;7.810;2022-12-16T15:44:47;20.58;;;14.13;;
1699;SDS011;847;48.058;7.810;2022-12-16T15:47:33;22.83;;;16.40;;
1699;SDS011;847;48.058;7.810;2022-12-16T15:50:20;25.75;;;16.35;;
1699;SDS011;847;48.058;7.810;2022-12-16T15:53:16;31.88;;;20.75;;
1699;SDS011;847;48.058;7.810;2022-12-16T15:56:21;34.13;;;21.75;;
1699;SDS011;847;48.058;7.810;2022-12-16T16:02:15;30.00;;;19.38;;
1699;SDS011;847;48.058;7.810;2022-12-16T16:05:06;27.92;;;20.00;;
1699;SDS011;847;48.058;7.810;2022-12-16T16:07:54;25.60;;;17.95;;
1699;SDS011;847;48.058;7.810;2022-12-16T16:10:40;25.23;;;17.23;;
1699;SDS011;847;48.058;7.810;2022-12-16T16:13:25;24.45;;;16.95;;
1699;SDS011;847;48.058;7.810;2022-12-16T16:16:09;26.70;;;17.95;;
1699;SDS011;847;48.058;7.810;2022-12-16T16:18:56;27.73;;;18.42;;
1699;SDS011;847;48.058;7.810;2022-12-16T16:21:52;27.80;;;18.75;;
1699;SDS011;847;48.058;7.810;2022-12-16T16:24:36;27.58;;;18.98;;
1699;SDS011;847;48.058;7.810;2022-12-16T16:27:21;22.77;;;16.70;;
1699;SDS011;847;48.058;7.810;2022-12-16T16:30:02;25.90;;;17.00;;
1699;SDS011;847;48.058;7.810;2022-12-16T16:32:46;29.38;;;19.50;;
1699;SDS011;847;48.058;7.810;2022-12-16T16:35:32;23.70;;;17.23;;
1699;SDS011;847;48.058;7.810;2022-12-16T16:38:17;24.77;;;16.75;;
1699;SDS011;847;48.058;7.810;2022-12-16T16:41:01;32.15;;;20.80;;
1699;SDS011;847;48.058;7.810;2022-12-16T16:43:45;25.13;;;16.50;;
1699;SDS011;847;48.058;7.810;2022-12-16T16:46:30;23.92;;;16.95;;
1699;SDS011;847;48.058;7.810;2022-12-16T16:49:18;27.23;;;18.95;;
1699;SDS011;847;48.058;7.810;2022-12-16T16:52:10;23.20;;;16.85;;
1699;SDS011;847;48.058;7.810;2022-12-16T16:54:54;31.42;;;22.77;;
1699;SDS011;847;48.058;7.810;2022-12-16T16:57:39;32.28;;;20.55;;